sensor_id;sensor_type;location;lat;lon;timestamp;P1;durP1;ratioP1;P2;durP2;ratioP2
56381;SDS011;74506;51.150;4.470;2024-02-21T00:00:22;20.65;;;6.25;;
56381;SDS011;74506;51.150;4.470;2024-02-21T00:02:47;15.15;;;5.80;;
56381;SDS011;74506;51.150;4.470;2024-02-21T00:05:13;9.93;;;3.85;;
56381;SDS011;74506;51.150;4.470;2024-02-21T00:07:39;12.55;;;4.70;;
56381;SDS011;74506;51.150;4.470;2024-02-21T00:10:04;8.13;;;3.83;;
56381;SDS011;74506;51.150;4.470;2024-02-21T00:12:30;15.68;;;4.90;;
56381;SDS011;74506;51.150;4.470;2024-02-21T00:14:56;11.73;;;4.80;;
56381;SDS011;74506;51.150;4.470;2024-02-21T00:17:22;14.40;;;4.18;;
56381;SDS011;74506;51.150;4.470;2024-02-21T00:19:47;16.90;;;5.03;;
56381;SDS011;74506;51.150;4.470;2024-02-21T00:22:13;12.55;;;5.00;;
56381;SDS011;74506;51.150;4.470;2024-02-21T00:24:39;16.50;;;5.28;;
56381;SDS011;74506;51.150;4.470;2024-02-21T00:27:05;17.70;;;5.03;;
56381;SDS011;74506;51.150;4.470;2024-02-21T00:29:30;13.77;;;4.43;;
56381;SDS011;74506;51.150;4.470;2024-02-21T00:31:56;14.10;;;4.95;;
56381;SDS011;74506;51.150;4.470;2024-02-21T00:34:22;15.38;;;5.47;;
56381;SDS011;74506;51.150;4.470;2024-02-21T00:36:48;22.77;;;5.57;;
56381;SDS011;74506;51.150;4.470;2024-02-21T00:39:13;18.80;;;5.75;;
56381;SDS011;74506;51.150;4.470;2024-02-21T00:41:39;10.60;;;4.90;;
56381;SDS011;74506;51.150;4.470;2024-02-21T00:44:05;20.40;;;5.85;;
56381;SDS011;74506;51.150;4.470;2024-02-21T00:46:31;16.25;;;5.32;;
56381;SDS011;74506;51.150;4.470;2024-02-21T00:48:57;17.27;;;5.20;;
56381;SDS011;74506;51.150;4.470;2024-02-21T00:51:22;17.80;;;5.45;;
56381;SDS011;74506;51.150;4.470;2024-02-21T00:53:48;13.82;;;4.82;;
56381;SDS011;74506;51.150;4.470;2024-02-21T00:56:14;15.05;;;5.13;;
56381;SDS011;74506;51.150;4.470;2024-02-21T00:58:39;14.55;;;5.00;;
56381;SDS011;74506;51.150;4.470;2024-02-21T01:01:05;14.40;;;4.68;;
56381;SDS011;74506;51.150;4.470;2024-02-21T01:03:31;16.40;;;5.47;;
56381;SDS011;74506;51.150;4.470;2024-02-21T01:05:56;16.67;;;4.78;;
56381;SDS011;74506;51.150;4.470;2024-02-21T01:08:22;14.68;;;5.00;;
56381;SDS011;74506;51.150;4.470;2024-02-21T01:10:48;14.23;;;5.88;;
56381;SDS011;74506;51.150;4.470;2024-02-21T01:13:13;12.27;;;5.45;;
56381;SDS011;74506;51.150;4.470;2024-02-21T01:15:39;16.05;;;6.43;;
56381;SDS011;74506;51.150;4.470;2024-02-21T01:18:05;13.50;;;4.88;;
56381;SDS011;74506;51.150;4.470;2024-02-21T01:20:31;18.55;;;5.72;;
56381;SDS011;74506;51.150;4.470;2024-02-21T01:22:57;12.32;;;5.57;;
56381;SDS011;74506;51.150;4.470;2024-02-21T01:25:23;19.48;;;6.18;;
56381;SDS011;74506;51.150;4.470;2024-02-21T01:27:48;14.38;;;5.32;;
56381;SDS011;74506;51.150;4.470;2024-02-21T01:30:14;17.65;;;5.82;;
56381;SDS011;74506;51.150;4.470;2024-02-21T01:32:40;16.23;;;6.95;;
56381;SDS011;74506;51.150;4.470;2024-02-21T01:35:07;16.05;;;5.95;;
56381;SDS011;74506;51.150;4.470;2024-02-21T01:37:32;14.88;;;5.38;;
56381;SDS011;74506;51.150;4.470;2024-02-21T01:39:58;18.40;;;5.40;;
56381;SDS011;74506;51.150;4.470;2024-02-21T01:42:24;12.95;;;5.18;;
56381;SDS011;74506;51.150;4.470;2024-02-21T01:44:49;19.13;;;5.88;;
56381;SDS011;74506;51.150;4.470;2024-02-21T01:47:16;14.30;;;6.07;;
56381;SDS011;74506;51.150;4.470;2024-02-21T01:49:42;15.05;;;5.93;;
56381;SDS011;74506;51.150;4.470;2024-02-21T01:52:08;17.52;;;6.72;;
56381;SDS011;74506;51.150;4.470;2024-02-21T01:54:34;14.30;;;5.68;;
56381;SDS011;74506;51.150;4.470;2024-02-21T01:57:00;16.02;;;5.75;;
56381;SDS011;74506;51.150;4.470;2024-02-21T01:59:26;19.17;;;6.43;;
56381;SDS011;74506;51.150;4.470;2024-02-21T02:01:52;17.17;;;5.70;;
56381;SDS011;74506;51.150;4.470;2024-02-21T02:04:19;21.00;;;6.35;;
56381;SDS011;74506;51.150;4.470;2024-02-21T02:06:45;17.95;;;6.78;;
56381;SDS011;74506;51.150;4.470;2024-02-21T02:09:11;21.33;;;6.28;;
56381;SDS011;74506;51.150;4.470;2024-02-21T02:11:37;18.40;;;6.85;;
56381;SDS011;74506;51.150;4.470;2024-02-21T02:14:03;19.88;;;6.55;;
56381;SDS011;74506;51.150;4.470;2024-02-21T02:16:28;18.83;;;6.10;;
56381;SDS011;74506;51.150;4.470;2024-02-21T02:18:54;18.63;;;6.97;;
56381;SDS011;74506;51.150;4.470;2024-02-21T02:21:29;18.10;;;6.65;;
56381;SDS011;74506;51.150;4.470;2024-02-21T02:23:56;17.05;;;7.30;;
56381;SDS011;74506;51.150;4.470;2024-02-21T02:26:21;19.05;;;6.80;;
56381;SDS011;74506;51.150;4.470;2024-02-21T02:28:47;18.02;;;7.10;;
56381;SDS011;74506;51.150;4.470;2024-02-21T02:31:13;22.92;;;7.28;;
56381;SDS011;74506;51.150;4.470;2024-02-21T02:33:38;17.88;;;6.45;;
56381;SDS011;74506;51.150;4.470;2024-02-21T02:36:04;18.20;;;7.13;;
56381;SDS011;74506;51.150;4.470;2024-02-21T02:38:30;24.48;;;6.90;;
56381;SDS011;74506;51.150;4.470;2024-02-21T02:40:56;19.40;;;7.80;;
56381;SDS011;74506;51.150;4.470;2024-02-21T02:43:21;17.77;;;6.78;;
56381;SDS011;74506;51.150;4.470;2024-02-21T02:45:47;21.55;;;6.68;;
56381;SDS011;74506;51.150;4.470;2024-02-21T02:48:12;19.02;;;7.53;;
56381;SDS011;74506;51.150;4.470;2024-02-21T02:50:38;20.38;;;7.90;;
56381;SDS011;74506;51.150;4.470;2024-02-21T02:53:04;16.27;;;6.63;;
56381;SDS011;74506;51.150;4.470;2024-02-21T02:55:29;21.25;;;7.13;;
56381;SDS011;74506;51.150;4.470;2024-02-21T02:57:55;22.65;;;7.60;;
56381;SDS011;74506;51.150;4.470;2024-02-21T03:00:21;17.00;;;6.28;;
56381;SDS011;74506;51.150;4.470;2024-02-21T03:02:48;16.42;;;6.85;;
56381;SDS011;74506;51.150;4.470;2024-02-21T03:05:14;17.42;;;6.85;;
56381;SDS011;74506;51.150;4.470;2024-02-21T03:07:40;20.20;;;8.18;;
56381;SDS011;74506;51.150;4.470;2024-02-21T03:10:06;18.15;;;6.50;;
56381;SDS011;74506;51.150;4.470;2024-02-21T03:12:32;19.80;;;7.30;;
56381;SDS011;74506;51.150;4.470;2024-02-21T03:14:58;15.73;;;6.55;;
56381;SDS011;74506;51.150;4.470;2024-02-21T03:17:24;19.52;;;6.47;;
56381;SDS011;74506;51.150;4.470;2024-02-21T03:19:50;18.30;;;7.18;;
56381;SDS011;74506;51.150;4.470;2024-02-21T03:22:16;15.50;;;6.80;;
56381;SDS011;74506;51.150;4.470;2024-02-21T03:24:41;13.82;;;4.78;;
56381;SDS011;74506;51.150;4.470;2024-02-21T03:27:07;22.23;;;6.90;;
56381;SDS011;74506;51.150;4.470;2024-02-21T03:29:33;21.55;;;6.70;;
56381;SDS011;74506;51.150;4.470;2024-02-21T03:31:59;21.00;;;6.68;;
56381;SDS011;74506;51.150;4.470;2024-02-21T03:34:25;23.95;;;8.05;;
56381;SDS011;74506;51.150;4.470;2024-02-21T03:36:50;16.27;;;6.35;;
56381;SDS011;74506;51.150;4.470;2024-02-21T03:39:16;18.50;;;6.60;;
56381;SDS011;74506;51.150;4.470;2024-02-21T03:41:41;9.13;;;5.28;;
56381;SDS011;74506;51.150;4.470;2024-02-21T03:44:07;16.67;;;5.85;;
56381;SDS011;74506;51.150;4.470;2024-02-21T03:46:32;14.05;;;5.68;;
56381;SDS011;74506;51.150;4.470;2024-02-21T03:48:58;16.10;;;6.22;;
56381;SDS011;74506;51.150;4.470;2024-02-21T03:51:25;15.88;;;5.68;;
56381;SDS011;74506;51.150;4.470;2024-02-21T03:53:51;14.43;;;6.70;;
56381;SDS011;74506;51.150;4.470;2024-02-21T03:56:17;16.27;;;6.43;;
56381;SDS011;74506;51.150;4.470;2024-02-21T03:58:42;16.40;;;6.93;;
56381;SDS011;74506;51.150;4.470;2024-02-21T04:01:08;11.30;;;5.03;;
56381;SDS011;74506;51.150;4.470;2024-02-21T04:03:34;15.30;;;6.68;;
56381;SDS011;74506;51.150;4.470;2024-02-21T04:05:59;19.83;;;6.60;;
56381;SDS011;74506;51.150;4.470;2024-02-21T04:08:25;14.38;;;5.93;;
56381;SDS011;74506;51.150;4.470;2024-02-21T04:10:51;15.98;;;5.88;;
56381;SDS011;74506;51.150;4.470;2024-02-21T04:13:17;18.35;;;6.82;;
56381;SDS011;74506;51.150;4.470;2024-02-21T04:15:42;16.00;;;6.65;;
56381;SDS011;74506;51.150;4.470;2024-02-21T04:18:08;15.82;;;6.60;;
56381;SDS011;74506;51.150;4.470;2024-02-21T04:20:34;12.40;;;5.82;;
56381;SDS011;74506;51.150;4.470;2024-02-21T04:23:00;17.42;;;6.22;;
56381;SDS011;74506;51.150;4.470;2024-02-21T04:25:25;14.68;;;7.00;;
56381;SDS011;74506;51.150;4.470;2024-02-21T04:27:51;16.02;;;7.40;;
56381;SDS011;74506;51.150;4.470;2024-02-21T04:30:17;17.55;;;6.82;;
56381;SDS011;74506;51.150;4.470;2024-02-21T04:32:43;16.85;;;7.07;;
56381;SDS011;74506;51.150;4.470;2024-02-21T04:35:09;21.33;;;7.07;;
56381;SDS011;74506;51.150;4.470;2024-02-21T04:37:34;16.75;;;6.80;;
56381;SDS011;74506;51.150;4.470;2024-02-21T04:40:00;21.20;;;7.85;;
56381;SDS011;74506;51.150;4.470;2024-02-21T04:42:25;22.33;;;7.50;;
56381;SDS011;74506;51.150;4.470;2024-02-21T04:44:51;16.58;;;7.15;;
56381;SDS011;74506;51.150;4.470;2024-02-21T04:47:18;22.80;;;8.10;;
56381;SDS011;74506;51.150;4.470;2024-02-21T04:49:45;20.13;;;8.68;;
56381;SDS011;74506;51.150;4.470;2024-02-21T04:52:11;20.75;;;8.43;;
56381;SDS011;74506;51.150;4.470;2024-02-21T04:54:37;24.27;;;8.10;;
56381;SDS011;74506;51.150;4.470;2024-02-21T04:57:03;18.45;;;8.30;;
56381;SDS011;74506;51.150;4.470;2024-02-21T04:59:29;26.17;;;8.63;;
56381;SDS011;74506;51.150;4.470;2024-02-21T05:01:55;22.75;;;8.55;;
56381;SDS011;74506;51.150;4.470;2024-02-21T05:04:20;18.35;;;8.35;;
56381;SDS011;74506;51.150;4.470;2024-02-21T05:06:46;26.30;;;8.57;;
56381;SDS011;74506;51.150;4.470;2024-02-21T05:09:12;23.60;;;8.82;;
56381;SDS011;74506;51.150;4.470;2024-02-21T05:11:38;23.08;;;8.35;;
56381;SDS011;74506;51.150;4.470;2024-02-21T05:14:03;18.85;;;8.38;;
56381;SDS011;74506;51.150;4.470;2024-02-21T05:16:30;16.30;;;7.95;;
56381;SDS011;74506;51.150;4.470;2024-02-21T05:18:55;20.55;;;8.48;;
56381;SDS011;74506;51.150;4.470;2024-02-21T05:21:22;18.83;;;7.78;;
56381;SDS011;74506;51.150;4.470;2024-02-21T05:23:49;22.25;;;8.07;;
56381;SDS011;74506;51.150;4.470;2024-02-21T05:26:21;18.05;;;8.23;;
56381;SDS011;74506;51.150;4.470;2024-02-21T05:28:48;20.27;;;8.60;;
56381;SDS011;74506;51.150;4.470;2024-02-21T05:31:13;23.83;;;8.43;;
56381;SDS011;74506;51.150;4.470;2024-02-21T05:33:39;22.92;;;8.18;;
56381;SDS011;74506;51.150;4.470;2024-02-21T05:36:05;20.27;;;8.02;;
56381;SDS011;74506;51.150;4.470;2024-02-21T05:38:31;17.38;;;8.13;;
56381;SDS011;74506;51.150;4.470;2024-02-21T05:40:56;14.88;;;8.30;;
56381;SDS011;74506;51.150;4.470;2024-02-21T05:43:22;17.98;;;8.52;;
56381;SDS011;74506;51.150;4.470;2024-02-21T05:45:48;20.02;;;7.75;;
56381;SDS011;74506;51.150;4.470;2024-02-21T05:48:14;14.73;;;7.50;;
56381;SDS011;74506;51.150;4.470;2024-02-21T05:50:39;18.02;;;6.90;;
56381;SDS011;74506;51.150;4.470;2024-02-21T05:53:05;19.52;;;7.97;;
56381;SDS011;74506;51.150;4.470;2024-02-21T05:55:30;18.33;;;8.40;;
56381;SDS011;74506;51.150;4.470;2024-02-21T05:57:56;22.58;;;8.75;;
56381;SDS011;74506;51.150;4.470;2024-02-21T06:00:22;20.35;;;7.82;;
56381;SDS011;74506;51.150;4.470;2024-02-21T06:02:48;16.25;;;7.15;;
56381;SDS011;74506;51.150;4.470;2024-02-21T06:05:13;15.70;;;7.13;;
56381;SDS011;74506;51.150;4.470;2024-02-21T06:07:39;16.25;;;7.35;;
56381;SDS011;74506;51.150;4.470;2024-02-21T06:10:05;19.38;;;7.13;;
56381;SDS011;74506;51.150;4.470;2024-02-21T06:12:30;20.20;;;8.05;;
56381;SDS011;74506;51.150;4.470;2024-02-21T06:14:56;14.38;;;6.70;;
56381;SDS011;74506;51.150;4.470;2024-02-21T06:17:22;16.45;;;6.70;;
56381;SDS011;74506;51.150;4.470;2024-02-21T06:19:47;16.77;;;6.97;;
56381;SDS011;74506;51.150;4.470;2024-02-21T06:22:13;12.18;;;7.07;;
56381;SDS011;74506;51.150;4.470;2024-02-21T06:24:39;15.48;;;7.30;;
56381;SDS011;74506;51.150;4.470;2024-02-21T06:27:04;16.02;;;6.97;;
56381;SDS011;74506;51.150;4.470;2024-02-21T06:29:31;13.85;;;6.90;;
56381;SDS011;74506;51.150;4.470;2024-02-21T06:31:57;15.00;;;6.45;;
56381;SDS011;74506;51.150;4.470;2024-02-21T06:34:22;19.17;;;7.80;;
56381;SDS011;74506;51.150;4.470;2024-02-21T06:36:49;17.92;;;7.80;;
56381;SDS011;74506;51.150;4.470;2024-02-21T06:39:15;11.65;;;5.75;;
56381;SDS011;74506;51.150;4.470;2024-02-21T06:41:41;12.57;;;6.82;;
56381;SDS011;74506;51.150;4.470;2024-02-21T06:44:07;15.10;;;5.65;;
56381;SDS011;74506;51.150;4.470;2024-02-21T06:46:32;16.08;;;7.38;;
56381;SDS011;74506;51.150;4.470;2024-02-21T06:49:01;17.02;;;6.95;;
56381;SDS011;74506;51.150;4.470;2024-02-21T06:51:28;15.40;;;6.38;;
56381;SDS011;74506;51.150;4.470;2024-02-21T06:53:54;12.30;;;5.88;;
56381;SDS011;74506;51.150;4.470;2024-02-21T06:56:23;10.05;;;5.68;;
56381;SDS011;74506;51.150;4.470;2024-02-21T06:58:54;12.43;;;6.25;;
56381;SDS011;74506;51.150;4.470;2024-02-21T07:01:19;11.60;;;6.07;;
56381;SDS011;74506;51.150;4.470;2024-02-21T07:03:45;13.75;;;6.72;;
56381;SDS011;74506;51.150;4.470;2024-02-21T07:06:11;15.57;;;6.30;;
56381;SDS011;74506;51.150;4.470;2024-02-21T07:08:36;12.95;;;5.93;;
56381;SDS011;74506;51.150;4.470;2024-02-21T07:11:02;15.70;;;6.05;;
56381;SDS011;74506;51.150;4.470;2024-02-21T07:13:28;11.00;;;5.45;;
56381;SDS011;74506;51.150;4.470;2024-02-21T07:15:54;12.07;;;6.63;;
56381;SDS011;74506;51.150;4.470;2024-02-21T07:18:19;14.93;;;6.30;;
56381;SDS011;74506;51.150;4.470;2024-02-21T07:20:44;11.00;;;6.00;;
56381;SDS011;74506;51.150;4.470;2024-02-21T07:23:10;9.32;;;4.30;;
56381;SDS011;74506;51.150;4.470;2024-02-21T07:25:35;11.32;;;5.70;;
56381;SDS011;74506;51.150;4.470;2024-02-21T07:28:01;11.52;;;5.82;;
56381;SDS011;74506;51.150;4.470;2024-02-21T07:30:26;10.18;;;5.60;;
56381;SDS011;74506;51.150;4.470;2024-02-21T07:32:52;13.00;;;6.45;;
56381;SDS011;74506;51.150;4.470;2024-02-21T07:35:18;12.05;;;6.05;;
56381;SDS011;74506;51.150;4.470;2024-02-21T07:37:43;12.02;;;6.72;;
56381;SDS011;74506;51.150;4.470;2024-02-21T07:40:13;13.65;;;6.38;;
56381;SDS011;74506;51.150;4.470;2024-02-21T07:42:39;12.98;;;6.28;;
56381;SDS011;74506;51.150;4.470;2024-02-21T07:45:04;10.25;;;6.03;;
56381;SDS011;74506;51.150;4.470;2024-02-21T07:47:30;11.43;;;5.97;;
56381;SDS011;74506;51.150;4.470;2024-02-21T07:49:55;10.45;;;5.75;;
56381;SDS011;74506;51.150;4.470;2024-02-21T07:52:21;11.70;;;6.55;;
56381;SDS011;74506;51.150;4.470;2024-02-21T07:54:47;10.73;;;5.20;;
56381;SDS011;74506;51.150;4.470;2024-02-21T07:57:12;12.30;;;7.13;;
56381;SDS011;74506;51.150;4.470;2024-02-21T07:59:38;13.20;;;6.03;;
56381;SDS011;74506;51.150;4.470;2024-02-21T08:02:03;12.40;;;6.78;;
56381;SDS011;74506;51.150;4.470;2024-02-21T08:04:32;11.05;;;6.50;;
56381;SDS011;74506;51.150;4.470;2024-02-21T08:06:58;10.82;;;6.35;;
56381;SDS011;74506;51.150;4.470;2024-02-21T08:09:28;9.15;;;5.03;;
56381;SDS011;74506;51.150;4.470;2024-02-21T08:11:54;12.98;;;7.38;;
56381;SDS011;74506;51.150;4.470;2024-02-21T08:14:20;11.82;;;7.03;;
56381;SDS011;74506;51.150;4.470;2024-02-21T08:16:45;11.25;;;6.88;;
56381;SDS011;74506;51.150;4.470;2024-02-21T08:19:11;15.73;;;8.90;;
56381;SDS011;74506;51.150;4.470;2024-02-21T08:21:37;17.17;;;9.20;;
56381;SDS011;74506;51.150;4.470;2024-02-21T08:24:02;15.93;;;9.40;;
56381;SDS011;74506;51.150;4.470;2024-02-21T08:26:28;15.75;;;10.20;;
56381;SDS011;74506;51.150;4.470;2024-02-21T08:28:56;14.45;;;8.38;;
56381;SDS011;74506;51.150;4.470;2024-02-21T08:31:25;14.32;;;9.65;;
56381;SDS011;74506;51.150;4.470;2024-02-21T08:33:57;16.02;;;10.70;;
56381;SDS011;74506;51.150;4.470;2024-02-21T08:36:31;19.48;;;11.38;;
56381;SDS011;74506;51.150;4.470;2024-02-21T08:38:57;16.13;;;9.95;;
56381;SDS011;74506;51.150;4.470;2024-02-21T08:41:23;12.02;;;7.78;;
56381;SDS011;74506;51.150;4.470;2024-02-21T08:43:50;14.57;;;9.68;;
56381;SDS011;74506;51.150;4.470;2024-02-21T08:46:16;15.30;;;9.38;;
56381;SDS011;74506;51.150;4.470;2024-02-21T08:48:41;16.88;;;8.80;;
56381;SDS011;74506;51.150;4.470;2024-02-21T08:51:07;15.15;;;8.93;;
56381;SDS011;74506;51.150;4.470;2024-02-21T08:53:32;17.30;;;9.35;;
56381;SDS011;74506;51.150;4.470;2024-02-21T08:55:58;12.70;;;7.57;;
56381;SDS011;74506;51.150;4.470;2024-02-21T08:58:24;13.25;;;7.88;;
56381;SDS011;74506;51.150;4.470;2024-02-21T09:00:52;13.88;;;6.75;;
56381;SDS011;74506;51.150;4.470;2024-02-21T09:03:17;10.43;;;5.43;;
56381;SDS011;74506;51.150;4.470;2024-02-21T09:05:45;8.50;;;5.28;;
56381;SDS011;74506;51.150;4.470;2024-02-21T09:08:12;14.13;;;6.60;;
56381;SDS011;74506;51.150;4.470;2024-02-21T09:10:37;12.13;;;6.20;;
56381;SDS011;74506;51.150;4.470;2024-02-21T09:13:03;12.77;;;5.75;;
56381;SDS011;74506;51.150;4.470;2024-02-21T09:15:29;9.77;;;4.63;;
56381;SDS011;74506;51.150;4.470;2024-02-21T09:17:55;9.02;;;4.93;;
56381;SDS011;74506;51.150;4.470;2024-02-21T09:20:21;8.10;;;5.45;;
56381;SDS011;74506;51.150;4.470;2024-02-21T09:22:46;9.50;;;4.63;;
56381;SDS011;74506;51.150;4.470;2024-02-21T09:25:12;10.52;;;5.47;;
56381;SDS011;74506;51.150;4.470;2024-02-21T09:27:38;10.25;;;4.45;;
56381;SDS011;74506;51.150;4.470;2024-02-21T09:30:04;7.60;;;4.35;;
56381;SDS011;74506;51.150;4.470;2024-02-21T09:32:30;12.75;;;4.68;;
56381;SDS011;74506;51.150;4.470;2024-02-21T09:34:57;5.50;;;3.47;;
56381;SDS011;74506;51.150;4.470;2024-02-21T09:37:23;10.18;;;4.55;;
56381;SDS011;74506;51.150;4.470;2024-02-21T09:39:49;16.10;;;5.10;;
56381;SDS011;74506;51.150;4.470;2024-02-21T09:42:17;8.80;;;4.75;;
56381;SDS011;74506;51.150;4.470;2024-02-21T09:44:44;9.00;;;4.28;;
56381;SDS011;74506;51.150;4.470;2024-02-21T09:47:12;8.20;;;4.28;;
56381;SDS011;74506;51.150;4.470;2024-02-21T09:49:40;10.63;;;3.95;;
56381;SDS011;74506;51.150;4.470;2024-02-21T09:52:08;7.65;;;3.28;;
56381;SDS011;74506;51.150;4.470;2024-02-21T09:54:34;7.50;;;3.15;;
56381;SDS011;74506;51.150;4.470;2024-02-21T09:57:00;8.65;;;3.67;;
56381;SDS011;74506;51.150;4.470;2024-02-21T09:59:30;6.20;;;3.17;;
56381;SDS011;74506;51.150;4.470;2024-02-21T10:01:56;7.68;;;2.90;;
56381;SDS011;74506;51.150;4.470;2024-02-21T10:04:22;7.20;;;3.10;;
56381;SDS011;74506;51.150;4.470;2024-02-21T10:06:47;6.80;;;3.13;;
56381;SDS011;74506;51.150;4.470;2024-02-21T10:09:20;5.38;;;2.65;;
56381;SDS011;74506;51.150;4.470;2024-02-21T10:11:45;5.45;;;2.75;;
56381;SDS011;74506;51.150;4.470;2024-02-21T10:14:11;10.80;;;3.05;;
56381;SDS011;74506;51.150;4.470;2024-02-21T10:16:36;9.13;;;3.33;;
56381;SDS011;74506;51.150;4.470;2024-02-21T10:19:02;3.92;;;2.15;;
56381;SDS011;74506;51.150;4.470;2024-02-21T10:21:28;4.90;;;3.08;;
56381;SDS011;74506;51.150;4.470;2024-02-21T10:23:55;5.93;;;2.78;;
56381;SDS011;74506;51.150;4.470;2024-02-21T10:26:20;7.63;;;3.00;;
56381;SDS011;74506;51.150;4.470;2024-02-21T10:28:49;12.38;;;3.67;;
56381;SDS011;74506;51.150;4.470;2024-02-21T10:31:23;12.07;;;3.17;;
56381;SDS011;74506;51.150;4.470;2024-02-21T10:36:21;7.78;;;2.75;;
56381;SDS011;74506;51.150;4.470;2024-02-21T10:38:47;6.97;;;2.90;;
56381;SDS011;74506;51.150;4.470;2024-02-21T10:41:15;4.25;;;1.92;;
56381;SDS011;74506;51.150;4.470;2024-02-21T10:43:42;6.82;;;2.40;;
56381;SDS011;74506;51.150;4.470;2024-02-21T10:46:10;9.27;;;2.92;;
56381;SDS011;74506;51.150;4.470;2024-02-21T10:48:43;8.45;;;3.15;;
56381;SDS011;74506;51.150;4.470;2024-02-21T10:53:54;10.52;;;3.10;;
56381;SDS011;74506;51.150;4.470;2024-02-21T10:56:26;6.32;;;2.47;;
56381;SDS011;74506;51.150;4.470;2024-02-21T10:58:52;10.75;;;2.75;;
56381;SDS011;74506;51.150;4.470;2024-02-21T11:01:18;6.60;;;3.00;;
56381;SDS011;74506;51.150;4.470;2024-02-21T11:03:45;11.38;;;3.17;;
56381;SDS011;74506;51.150;4.470;2024-02-21T11:06:11;8.95;;;3.78;;
56381;SDS011;74506;51.150;4.470;2024-02-21T11:08:38;12.13;;;3.38;;
56381;SDS011;74506;51.150;4.470;2024-02-21T11:11:04;11.13;;;3.30;;
56381;SDS011;74506;51.150;4.470;2024-02-21T11:13:37;8.27;;;3.13;;
56381;SDS011;74506;51.150;4.470;2024-02-21T11:16:09;10.82;;;3.55;;
56381;SDS011;74506;51.150;4.470;2024-02-21T11:18:36;7.70;;;4.00;;
56381;SDS011;74506;51.150;4.470;2024-02-21T11:21:02;13.98;;;3.65;;
56381;SDS011;74506;51.150;4.470;2024-02-21T11:23:30;9.82;;;3.78;;
56381;SDS011;74506;51.150;4.470;2024-02-21T11:26:17;9.52;;;4.00;;
56381;SDS011;74506;51.150;4.470;2024-02-21T11:28:44;7.07;;;2.85;;
56381;SDS011;74506;51.150;4.470;2024-02-21T11:31:11;8.52;;;3.08;;
56381;SDS011;74506;51.150;4.470;2024-02-21T11:33:39;9.57;;;2.88;;
56381;SDS011;74506;51.150;4.470;2024-02-21T11:36:05;10.13;;;3.22;;
56381;SDS011;74506;51.150;4.470;2024-02-21T11:38:31;7.20;;;3.20;;
56381;SDS011;74506;51.150;4.470;2024-02-21T11:40:56;11.95;;;3.83;;
56381;SDS011;74506;51.150;4.470;2024-02-21T11:43:23;9.32;;;3.47;;
56381;SDS011;74506;51.150;4.470;2024-02-21T11:45:49;10.10;;;3.30;;
56381;SDS011;74506;51.150;4.470;2024-02-21T11:48:15;9.45;;;2.97;;
56381;SDS011;74506;51.150;4.470;2024-02-21T11:50:40;7.88;;;2.75;;
56381;SDS011;74506;51.150;4.470;2024-02-21T11:53:06;8.27;;;3.90;;
56381;SDS011;74506;51.150;4.470;2024-02-21T11:55:32;8.35;;;4.22;;
56381;SDS011;74506;51.150;4.470;2024-02-21T11:57:59;9.27;;;4.70;;
56381;SDS011;74506;51.150;4.470;2024-02-21T12:00:25;8.90;;;4.65;;
56381;SDS011;74506;51.150;4.470;2024-02-21T12:02:50;14.52;;;5.38;;
56381;SDS011;74506;51.150;4.470;2024-02-21T12:05:16;9.60;;;5.95;;
56381;SDS011;74506;51.150;4.470;2024-02-21T12:07:43;9.95;;;5.35;;
56381;SDS011;74506;51.150;4.470;2024-02-21T12:10:09;10.38;;;5.75;;
56381;SDS011;74506;51.150;4.470;2024-02-21T12:12:35;14.63;;;5.40;;
56381;SDS011;74506;51.150;4.470;2024-02-21T12:15:03;8.25;;;4.70;;
56381;SDS011;74506;51.150;4.470;2024-02-21T12:17:29;9.80;;;3.45;;
56381;SDS011;74506;51.150;4.470;2024-02-21T12:19:56;7.82;;;3.42;;
56381;SDS011;74506;51.150;4.470;2024-02-21T12:22:21;9.90;;;3.97;;
56381;SDS011;74506;51.150;4.470;2024-02-21T12:24:47;4.75;;;2.25;;
56381;SDS011;74506;51.150;4.470;2024-02-21T12:27:13;11.93;;;3.60;;
56381;SDS011;74506;51.150;4.470;2024-02-21T12:29:38;9.77;;;3.20;;
56381;SDS011;74506;51.150;4.470;2024-02-21T12:32:04;4.88;;;2.42;;
56381;SDS011;74506;51.150;4.470;2024-02-21T12:34:29;13.52;;;4.85;;
56381;SDS011;74506;51.150;4.470;2024-02-21T12:36:58;14.73;;;5.78;;
56381;SDS011;74506;51.150;4.470;2024-02-21T12:39:23;9.63;;;3.33;;
56381;SDS011;74506;51.150;4.470;2024-02-21T12:41:49;12.43;;;3.45;;
56381;SDS011;74506;51.150;4.470;2024-02-21T12:44:15;7.72;;;3.47;;
56381;SDS011;74506;51.150;4.470;2024-02-21T12:46:42;10.85;;;4.28;;
56381;SDS011;74506;51.150;4.470;2024-02-21T12:49:08;7.43;;;2.35;;
56381;SDS011;74506;51.150;4.470;2024-02-21T12:51:34;10.95;;;3.28;;
56381;SDS011;74506;51.150;4.470;2024-02-21T12:53:59;9.73;;;3.22;;
56381;SDS011;74506;51.150;4.470;2024-02-21T12:56:25;10.85;;;4.38;;
56381;SDS011;74506;51.150;4.470;2024-02-21T12:58:54;7.60;;;3.83;;
56381;SDS011;74506;51.150;4.470;2024-02-21T13:01:20;8.75;;;3.53;;
56381;SDS011;74506;51.150;4.470;2024-02-21T13:03:46;8.63;;;3.88;;
56381;SDS011;74506;51.150;4.470;2024-02-21T13:06:12;9.63;;;3.88;;
56381;SDS011;74506;51.150;4.470;2024-02-21T13:08:37;9.88;;;3.90;;
56381;SDS011;74506;51.150;4.470;2024-02-21T13:11:03;8.95;;;3.95;;
56381;SDS011;74506;51.150;4.470;2024-02-21T13:13:29;9.35;;;4.30;;
56381;SDS011;74506;51.150;4.470;2024-02-21T13:15:54;8.80;;;3.63;;
56381;SDS011;74506;51.150;4.470;2024-02-21T13:18:20;10.23;;;4.32;;
56381;SDS011;74506;51.150;4.470;2024-02-21T13:20:46;7.95;;;3.95;;
56381;SDS011;74506;51.150;4.470;2024-02-21T13:23:11;10.45;;;3.88;;
56381;SDS011;74506;51.150;4.470;2024-02-21T13:25:38;8.35;;;3.95;;
56381;SDS011;74506;51.150;4.470;2024-02-21T13:28:03;13.90;;;4.70;;
56381;SDS011;74506;51.150;4.470;2024-02-21T13:30:29;11.05;;;4.07;;
56381;SDS011;74506;51.150;4.470;2024-02-21T13:32:54;7.15;;;3.83;;
56381;SDS011;74506;51.150;4.470;2024-02-21T13:35:20;10.38;;;3.38;;
56381;SDS011;74506;51.150;4.470;2024-02-21T13:37:45;9.90;;;4.03;;
56381;SDS011;74506;51.150;4.470;2024-02-21T13:40:11;10.00;;;3.47;;
56381;SDS011;74506;51.150;4.470;2024-02-21T13:42:39;11.73;;;4.07;;
56381;SDS011;74506;51.150;4.470;2024-02-21T13:45:04;8.80;;;4.80;;
56381;SDS011;74506;51.150;4.470;2024-02-21T13:47:31;8.95;;;4.15;;
56381;SDS011;74506;51.150;4.470;2024-02-21T13:49:56;6.97;;;3.08;;
56381;SDS011;74506;51.150;4.470;2024-02-21T13:52:22;10.52;;;4.03;;
56381;SDS011;74506;51.150;4.470;2024-02-21T13:54:48;10.05;;;4.30;;
56381;SDS011;74506;51.150;4.470;2024-02-21T13:57:13;9.77;;;4.32;;
56381;SDS011;74506;51.150;4.470;2024-02-21T13:59:39;8.95;;;4.05;;
56381;SDS011;74506;51.150;4.470;2024-02-21T14:02:05;8.52;;;3.88;;
56381;SDS011;74506;51.150;4.470;2024-02-21T14:04:32;9.77;;;3.13;;
56381;SDS011;74506;51.150;4.470;2024-02-21T14:06:57;11.93;;;4.85;;
56381;SDS011;74506;51.150;4.470;2024-02-21T14:09:23;9.02;;;4.55;;
56381;SDS011;74506;51.150;4.470;2024-02-21T14:11:48;7.30;;;4.38;;
56381;SDS011;74506;51.150;4.470;2024-02-21T14:14:14;14.63;;;4.80;;
56381;SDS011;74506;51.150;4.470;2024-02-21T14:16:40;8.68;;;4.60;;
56381;SDS011;74506;51.150;4.470;2024-02-21T14:19:06;8.18;;;4.43;;
56381;SDS011;74506;51.150;4.470;2024-02-21T14:21:32;12.63;;;5.05;;
56381;SDS011;74506;51.150;4.470;2024-02-21T14:23:57;10.90;;;4.80;;
56381;SDS011;74506;51.150;4.470;2024-02-21T14:26:23;8.27;;;4.90;;
56381;SDS011;74506;51.150;4.470;2024-02-21T14:28:48;11.02;;;4.85;;
56381;SDS011;74506;51.150;4.470;2024-02-21T14:31:14;12.18;;;5.18;;
56381;SDS011;74506;51.150;4.470;2024-02-21T14:33:39;9.45;;;3.92;;
56381;SDS011;74506;51.150;4.470;2024-02-21T14:36:05;10.35;;;4.97;;